Main page
METAR-TAF:

METAR-TAF

Airports :

Niamey, Niger

Diori Hamani International Airport

latitude: 13-29N, longitude: 002-10E, elevation: 223 m

Current weather observation

The report was made 31 minutes ago, at 20:00 UTC
Wind 7 kt from the East/Southeast
Temperature 36°C
Humidity 35%
Pressure 1007 hPa
Visibility: 6000 m

METAR: DRRN 232000Z 11007KT 6000 NSC 36/18 Q1007 NOSIG

Time: 21:31 (20:31 UTC)

Forecast

The report was made 3 hours and 31 minutes ago, at 17:00 UTC
Forecast valid from 23 at 18 UTC to 24 at 24 UTC
Wind 8 kt from the South
Visibility: 6000 m
Temporary
from 23 at 18 UTC to 23 at 12 UTC
Visibility: 4000 m
haze
Probability 40% :
Temporary
from 23 at 23 UTC to 24 at 04 UTC
Wind 25 kt from the East with gusts up to 40 kt
Visibility: 1000 m
Scattered clouds at a height of 3000 ft
Few clouds at a height of 4000 ft, Cumulonimbus.
squalls, Blowing dust, thunderstorm, rain

TAF: DRRN 231700Z 2318/2424 18008KT 6000 NSC TEMPO 2318/23121 4000 HZ PROB40 TEMPO 2323/2404 08025G40KT 1000 SQ BLDU TSRA SCT030 FEW040CB

Weather observations and forecasts of more than 4000 airports (METAR and TAF reports).

The available stations are represented by yellow and red dots on the map.

Hover mouse over dot to see the name of the station.

Then click to see weather observations and forecasts.

To change the map : click on the green buttons with a black cross to zoom in, on the green button with a dash to zoom out, or on the green arrows for adjacent maps.


METAR-TAF: